Terminal Aerodrome Forecast
Issued by NWS Wilmington, OH

Home | Current Version | Previous Version | Text Only | Print | Product List | Glossary On
Versions: 1 2 3 4 5 6 7 8 9 10 11 12 13 14 15 16 17 18
904
FTUS41 KILN 211749 AAA
TAFCMH
TAF AMD
KCMH 211749Z 2118/2218 19010KT P6SM SCT030 BKN050 OVC100
      TEMPO 2118/2119 BKN009
     FM212300 VRB04KT P6SM FEW050 SCT200
      TEMPO 2209/2212 00000KT 4SM BR BKN005
     FM221200 VRB03KT P6SM VCSH BKN050
      TEMPO 2214/2218 22014G20KT 5SM -SHRA BR BKN020 OVC040=

USA.gov is the U.S. government's official web portal to all federal, state and local government web resources and services.